Time;durP1;ratioP1;P1;durP2;ratioP2;P2;SDS_P1;SDS_P2;PMS_P1;PMS_P2;Temp;Humidity;BMP_temperature;BMP_pressure;BME280_temperature;BME280_humidity;BME280_pressure;Samples;Min_cycle;Max_cycle;Signal;HPM_P1;HPM_P2
2022/08/01 00:00:46;;;;;;;1.85;1.63;;;21.60;99.90;;;;;;5233663;28;20025;-60
2022/08/01 00:03:22;;;;;;;1.85;1.67;;;21.60;99.90;;;;;;5235439;28;20028;-60
2022/08/01 00:05:56;;;;;;;1.70;1.60;;;21.60;99.90;;;;;;5209564;28;20045;-62
2022/08/01 00:08:28;;;;;;;2.15;1.83;;;21.50;99.90;;;;;;5215969;28;20246;-62
2022/08/01 00:11:00;;;;;;;2.88;2.00;;;21.50;99.90;;;;;;5215427;28;20249;-62
2022/08/01 00:13:31;;;;;;;2.65;2.13;;;21.70;99.90;;;;;;5220828;28;20306;-60
2022/08/01 00:16:07;;;;;;;1.60;1.50;;;21.60;99.90;;;;;;5228790;28;20470;-61
2022/08/01 00:18:39;;;;;;;2.10;2.00;;;21.60;99.90;;;;;;5234346;28;20323;-61
2022/08/01 00:21:15;;;;;;;3.22;2.20;;;21.50;99.90;;;;;;5218275;28;20286;-60
2022/08/01 00:23:46;;;;;;;3.92;1.95;;;21.30;99.90;;;;;;5200194;28;20028;-61
2022/08/01 00:26:20;;;;;;;1.60;1.50;;;21.20;99.90;;;;;;5230552;28;20209;-60
2022/08/01 00:28:51;;;;;;;2.05;1.85;;;21.00;99.90;;;;;;5194617;28;20033;-61
2022/08/01 00:31:22;;;;;;;2.25;1.90;;;20.90;99.90;;;;;;5214086;28;20025;-60
2022/08/01 00:33:56;;;;;;;2.28;2.10;;;20.80;99.90;;;;;;5196386;28;20025;-61
2022/08/01 00:36:29;;;;;;;2.28;2.08;;;20.60;99.90;;;;;;5197214;28;20037;-60
2022/08/01 00:39:00;;;;;;;7.38;2.20;;;20.50;99.90;;;;;;5160107;28;20327;-60
2022/08/01 00:41:39;;;;;;;2.10;2.00;;;20.50;99.90;;;;;;5191912;28;20017;-60
2022/08/01 00:44:13;;;;;;;2.40;2.20;;;20.40;99.90;;;;;;5214627;28;20315;-61
2022/08/01 00:46:46;;;;;;;2.10;1.90;;;20.40;99.90;;;;;;5213750;28;20029;-61
2022/08/01 00:49:18;;;;;;;2.30;2.10;;;20.40;99.90;;;;;;5215356;28;20214;-61
2022/08/01 00:51:51;;;;;;;2.13;1.92;;;20.30;99.90;;;;;;5198483;28;20326;-60
2022/08/01 00:54:29;;;;;;;3.35;2.28;;;20.40;99.90;;;;;;5214679;28;20027;-60
2022/08/01 00:57:01;;;;;;;3.10;2.17;;;20.40;99.90;;;;;;5215541;28;20055;-59
2022/08/01 00:59:36;;;;;;;2.35;2.15;;;20.40;99.90;;;;;;5180544;28;20045;-61
2022/08/01 01:02:07;;;;;;;6.45;2.08;;;20.50;99.90;;;;;;5216946;28;20108;-60
2022/08/01 01:04:38;;;;;;;1.95;1.75;;;20.70;99.90;;;;;;5204598;28;20220;-61
2022/08/01 01:07:18;;;;;;;1.50;1.40;;;20.60;99.90;;;;;;5214382;28;20162;-61
2022/08/01 01:10:17;;;;;;;2.70;1.95;;;20.60;99.90;;;;;;5211825;28;20241;-60
2022/08/01 01:13:07;;;;;;;4.50;2.30;;;20.50;99.90;;;;;;5196311;28;20335;-60
2022/08/01 01:15:53;;;;;;;2.03;1.90;;;20.50;99.90;;;;;;5216245;28;20039;-61
2022/08/01 01:18:32;;;;;;;2.50;1.63;;;20.40;99.90;;;;;;5236385;28;20031;-60
2022/08/01 01:21:19;;;;;;;2.50;1.92;;;20.30;99.90;;;;;;5194164;28;20056;-60
2022/08/01 01:24:17;;;;;;;2.53;2.13;;;20.40;99.90;;;;;;5191732;28;20023;-61
2022/08/01 01:27:09;;;;;;;2.10;1.90;;;20.40;99.90;;;;;;5194731;28;20013;-60
2022/08/01 01:29:47;;;;;;;2.50;2.13;;;20.40;99.90;;;;;;5193908;28;20079;-60
2022/08/01 01:32:33;;;;;;;4.47;1.63;;;20.60;99.90;;;;;;5160137;28;20093;-59
2022/08/01 01:35:27;;;;;;;1.83;1.73;;;20.80;99.90;;;;;;5205865;28;20229;-60
2022/08/01 01:38:13;;;;;;;3.43;2.03;;;20.80;99.90;;;;;;5207777;28;20020;-61
2022/08/01 01:40:50;;;;;;;2.20;1.85;;;20.90;99.90;;;;;;5216509;28;20631;-61
2022/08/01 01:43:23;;;;;;;2.38;2.03;;;21.10;99.90;;;;;;5205522;28;20025;-60
2022/08/01 01:45:56;;;;;;;1.77;1.63;;;21.20;99.90;;;;;;5206162;28;20262;-61
2022/08/01 01:48:30;;;;;;;1.95;1.63;;;21.30;99.90;;;;;;5217478;28;20037;-61
2022/08/01 01:51:03;;;;;;;2.47;1.75;;;21.40;99.90;;;;;;5220955;28;20023;-62
2022/08/01 01:53:36;;;;;;;1.70;1.60;;;21.60;99.90;;;;;;5195041;28;20024;-60
2022/08/01 01:56:14;;;;;;;1.50;1.30;;;21.60;99.90;;;;;;5180701;28;20032;-60
2022/08/01 01:58:57;;;;;;;1.48;1.38;;;21.80;99.90;;;;;;5197362;28;20229;-60
2022/08/01 02:01:33;;;;;;;1.50;1.40;;;22.00;99.90;;;;;;5202851;28;20021;-60
2022/08/01 02:04:04;;;;;;;2.17;1.80;;;22.10;99.90;;;;;;5190191;28;20064;-61
2022/08/01 02:06:42;;;;;;;1.90;1.70;;;22.10;99.90;;;;;;5178681;28;20045;-60
2022/08/01 02:09:27;;;;;;;1.98;1.60;;;22.20;99.90;;;;;;5181129;28;20040;-61
2022/08/01 02:12:03;;;;;;;2.50;1.50;;;22.10;99.90;;;;;;5189691;28;20423;-61
2022/08/01 02:14:44;;;;;;;1.60;1.50;;;22.10;99.90;;;;;;5162869;28;20036;-60
2022/08/01 02:17:18;;;;;;;1.52;1.42;;;22.00;99.90;;;;;;5203934;28;20021;-60
2022/08/01 02:19:53;;;;;;;2.65;2.08;;;21.80;99.90;;;;;;5199198;28;20021;-61
2022/08/01 02:22:35;;;;;;;2.28;1.83;;;21.60;99.90;;;;;;5198652;28;20029;-61
2022/08/01 02:25:33;;;;;;;2.90;1.77;;;21.40;99.90;;;;;;5205809;28;20023;-59
2022/08/01 02:28:07;;;;;;;2.70;1.98;;;21.30;99.90;;;;;;5210165;28;20027;-62
2022/08/01 02:30:47;;;;;;;1.88;1.67;;;21.20;99.90;;;;;;5197980;28;20025;-61
2022/08/01 02:33:23;;;;;;;3.08;1.38;;;21.20;99.90;;;;;;5216659;28;20051;-60
2022/08/01 02:36:00;;;;;;;1.50;1.40;;;21.10;99.90;;;;;;5213331;28;20206;-60
2022/08/01 02:38:34;;;;;;;1.58;1.48;;;21.30;99.90;;;;;;5219581;28;20029;-61
2022/08/01 02:41:08;;;;;;;;;;;21.70;99.90;;;;;;5198407;28;20033;-62
2022/08/01 02:43:45;;;;;;;1.42;1.33;;;22.00;99.90;;;;;;5193202;28;19904;-60
2022/08/01 02:46:22;;;;;;;1.38;1.27;;;22.00;99.90;;;;;;5222677;28;20328;-60
2022/08/01 02:48:58;;;;;;;2.08;1.90;;;22.00;99.90;;;;;;5205079;28;20035;-61
2022/08/01 02:51:31;;;;;;;2.00;1.60;;;21.90;99.90;;;;;;5221759;28;20027;-62
2022/08/01 02:54:07;;;;;;;1.42;1.15;;;21.70;99.90;;;;;;5196497;28;20033;-60
2022/08/01 02:56:40;;;;;;;1.73;1.63;;;21.60;99.90;;;;;;5211473;28;20043;-60
2022/08/01 02:59:16;;;;;;;2.45;1.50;;;21.70;99.90;;;;;;5200695;28;20342;-61
2022/08/01 03:01:49;;;;;;;1.48;1.38;;;21.90;99.90;;;;;;5203487;28;20311;-60
2022/08/01 03:04:26;;;;;;;3.90;1.40;;;22.10;99.90;;;;;;5203569;28;20027;-60
2022/08/01 03:07:03;;;;;;;1.70;1.60;;;22.20;99.90;;;;;;5190923;28;20025;-60
2022/08/01 03:09:44;;;;;;;1.52;1.40;;;22.20;99.90;;;;;;5170717;28;20024;-61
2022/08/01 03:12:18;;;;;;;2.85;1.80;;;22.20;99.90;;;;;;5196555;28;20036;-61
2022/08/01 03:14:58;;;;;;;1.77;1.60;;;22.20;99.90;;;;;;5214682;28;20040;-61
2022/08/01 03:17:31;;;;;;;1.60;1.50;;;22.30;99.90;;;;;;5219387;28;20035;-62
2022/08/01 03:20:08;;;;;;;1.70;1.42;;;22.30;99.90;;;;;;5211374;28;20020;-61
2022/08/01 03:22:42;;;;;;;1.45;1.35;;;22.30;99.90;;;;;;5203140;28;20240;-61
2022/08/01 03:25:16;;;;;;;1.30;1.20;;;22.20;99.90;;;;;;5215019;28;20244;-61
2022/08/01 03:27:59;;;;;;;1.98;1.63;;;22.00;99.90;;;;;;5214589;28;20281;-61
2022/08/01 03:30:32;;;;;;;1.83;1.63;;;21.90;99.90;;;;;;5196673;28;20021;-61
2022/08/01 03:33:04;;;;;;;3.80;1.88;;;21.80;99.90;;;;;;5213039;28;20037;-60
2022/08/01 03:35:42;;;;;;;2.17;1.90;;;21.80;99.90;;;;;;5209962;28;20021;-61
2022/08/01 03:38:18;;;;;;;1.73;1.63;;;21.70;99.90;;;;;;5215176;28;20302;-60
2022/08/01 03:40:56;;;;;;;1.70;1.60;;;21.70;99.90;;;;;;5201542;28;20032;-60
2022/08/01 03:43:36;;;;;;;1.58;1.23;;;21.60;99.90;;;;;;5208671;28;20033;-60
2022/08/01 03:46:20;;;;;;;2.00;1.90;;;21.50;99.90;;;;;;5196450;28;20031;-60
2022/08/01 03:48:55;;;;;;;1.63;1.40;;;21.50;99.90;;;;;;5214939;28;20226;-60
2022/08/01 03:51:28;;;;;;;1.80;1.63;;;21.50;99.90;;;;;;5199324;28;20020;-60
2022/08/01 03:54:02;;;;;;;1.77;1.50;;;21.40;99.90;;;;;;5216502;28;20039;-60
2022/08/01 03:56:36;;;;;;;1.50;1.40;;;21.30;99.90;;;;;;5197844;28;20463;-61
2022/08/01 03:59:08;;;;;;;;;;;21.30;99.90;;;;;;5193896;28;20325;-61
2022/08/01 04:01:48;;;;;;;1.48;1.38;;;21.20;99.90;;;;;;5180474;28;19900;-62
2022/08/01 04:04:22;;;;;;;2.83;1.38;;;21.20;99.90;;;;;;5204206;28;20033;-61
2022/08/01 04:06:54;;;;;;;1.55;1.45;;;21.20;99.90;;;;;;5198041;28;20020;-60
2022/08/01 04:09:25;;;;;;;2.60;1.60;;;21.10;99.90;;;;;;5195198;28;20245;-61
2022/08/01 04:11:57;;;;;;;1.65;1.55;;;21.10;99.90;;;;;;5181875;28;20041;-61
2022/08/01 04:14:28;;;;;;;1.70;1.60;;;21.20;99.90;;;;;;5213034;28;20035;-61
2022/08/01 04:17:03;;;;;;;1.67;1.58;;;21.10;99.90;;;;;;5214515;28;20263;-61
2022/08/01 04:19:38;;;;;;;1.73;1.50;;;21.10;99.90;;;;;;5215731;28;20035;-60
2022/08/01 04:22:14;;;;;;;1.52;1.40;;;21.00;99.90;;;;;;5180326;28;20194;-60
2022/08/01 04:24:53;;;;;;;1.95;1.85;;;20.90;99.90;;;;;;5180732;28;20029;-61
2022/08/01 04:27:33;;;;;;;2.03;1.40;;;20.90;99.90;;;;;;5197086;28;20249;-62
2022/08/01 04:30:06;;;;;;;2.35;1.95;;;20.90;99.90;;;;;;5226394;28;20020;-62
2022/08/01 04:32:39;;;;;;;2.13;1.63;;;21.00;99.90;;;;;;5198620;28;20032;-60
2022/08/01 04:35:16;;;;;;;2.38;1.70;;;21.00;99.90;;;;;;5213976;28;20040;-61
2022/08/01 04:37:50;;;;;;;1.65;1.55;;;21.00;99.90;;;;;;5197457;28;20031;-61
2022/08/01 04:40:22;;;;;;;2.00;1.80;;;21.10;99.90;;;;;;5213844;28;20127;-61
2022/08/01 04:42:56;;;;;;;3.88;1.58;;;21.10;99.90;;;;;;5181647;28;20033;-60
2022/08/01 04:45:30;;;;;;;1.93;1.80;;;21.10;99.90;;;;;;5235559;28;20030;-60
2022/08/01 04:48:06;;;;;;;;;;;21.10;99.90;;;;;;5223982;28;20044;-60
2022/08/01 04:50:44;;;;;;;1.70;1.60;;;21.20;99.90;;;;;;5201050;28;19901;-62
2022/08/01 04:53:17;;;;;;;1.90;1.75;;;21.30;99.90;;;;;;5199666;28;20025;-61
2022/08/01 04:55:51;;;;;;;1.92;1.73;;;21.40;99.90;;;;;;5216353;28;20033;-61
2022/08/01 04:58:22;;;;;;;2.10;1.98;;;21.40;99.90;;;;;;5216373;28;20043;-61
2022/08/01 05:00:55;;;;;;;1.77;1.67;;;21.60;99.90;;;;;;5208820;28;20051;-61
2022/08/01 05:03:26;;;;;;;1.90;1.80;;;21.70;99.90;;;;;;5213542;28;20027;-62
2022/08/01 05:06:06;;;;;;;3.55;1.88;;;21.80;99.90;;;;;;5201796;28;20049;-61
2022/08/01 05:08:41;;;;;;;2.28;1.83;;;21.80;99.90;;;;;;5215681;28;20178;-61
2022/08/01 05:11:16;;;;;;;1.60;1.50;;;21.90;99.90;;;;;;5212503;28;20021;-62
2022/08/01 05:13:47;;;;;;;3.00;2.22;;;22.00;99.90;;;;;;5213113;28;20331;-62
2022/08/01 05:16:21;;;;;;;2.50;2.22;;;22.00;99.90;;;;;;5213802;28;20267;-62
2022/08/01 05:18:55;;;;;;;2.17;1.97;;;22.10;99.90;;;;;;5213048;28;20304;-61
2022/08/01 05:21:29;;;;;;;2.58;2.33;;;22.20;99.90;;;;;;5201458;28;20315;-60
2022/08/01 05:24:02;;;;;;;7.07;2.33;;;22.30;99.90;;;;;;5221794;28;20029;-61
2022/08/01 05:26:34;;;;;;;3.50;1.90;;;22.20;99.90;;;;;;5222595;28;20322;-61
2022/08/01 05:29:17;;;;;;;2.22;2.00;;;22.30;99.90;;;;;;5240094;28;20032;-61
2022/08/01 05:31:48;;;;;;;2.33;2.13;;;22.40;99.90;;;;;;5235446;28;20033;-62
2022/08/01 05:34:23;;;;;;;3.63;1.90;;;22.60;99.90;;;;;;5199149;28;20032;-61
2022/08/01 05:36:54;;;;;;;2.78;2.33;;;22.70;99.90;;;;;;5220927;28;20029;-62
2022/08/01 05:39:25;;;;;;;2.10;1.90;;;22.90;99.90;;;;;;5203440;28;20051;-61
2022/08/01 05:41:57;;;;;;;3.22;1.92;;;23.10;99.90;;;;;;5187073;28;20037;-61
2022/08/01 05:44:28;;;;;;;2.42;2.05;;;23.20;99.90;;;;;;5219055;28;20031;-61
2022/08/01 05:47:02;;;;;;;2.10;1.88;;;23.30;99.90;;;;;;5186713;28;20037;-60
2022/08/01 05:49:33;;;;;;;;;;;23.30;99.90;;;;;;5220318;28;20233;-61
2022/08/01 05:52:09;;;;;;;2.25;1.70;;;23.40;99.90;;;;;;5219573;28;19901;-61
2022/08/01 05:54:41;;;;;;;2.10;1.95;;;23.50;99.90;;;;;;5209283;28;20023;-61
2022/08/01 05:57:12;;;;;;;3.30;2.20;;;23.50;99.90;;;;;;5219276;28;20020;-62
2022/08/01 05:59:45;;;;;;;1.90;1.80;;;23.60;99.90;;;;;;5188321;28;20229;-62
2022/08/01 06:02:19;;;;;;;2.25;2.05;;;23.80;99.90;;;;;;5222294;28;20031;-61
2022/08/01 06:04:50;;;;;;;3.47;1.95;;;23.90;99.90;;;;;;5213993;28;20265;-61
2022/08/01 06:07:22;;;;;;;3.45;2.08;;;23.90;99.90;;;;;;5236273;28;20221;-61
2022/08/01 06:09:53;;;;;;;2.45;2.25;;;24.00;99.90;;;;;;5225975;28;20039;-62
2022/08/01 06:12:31;;;;;;;2.50;1.98;;;24.00;99.90;;;;;;5222204;28;20221;-62
2022/08/01 06:15:04;;;;;;;2.63;2.17;;;24.10;99.90;;;;;;5219815;28;20025;-62
2022/08/01 06:17:35;;;;;;;3.05;2.20;;;24.10;99.90;;;;;;5222781;28;20028;-62
2022/08/01 06:20:12;;;;;;;2.22;1.92;;;24.20;99.90;;;;;;5217935;28;20012;-61
2022/08/01 06:22:46;;;;;;;2.25;1.92;;;24.40;99.90;;;;;;5234536;28;20289;-62
2022/08/01 06:25:18;;;;;;;;;;;24.50;99.90;;;;;;5206414;28;20039;-62
2022/08/01 06:27:49;;;;;;;2.13;1.92;;;24.70;99.90;;;;;;5221888;28;20184;-61
2022/08/01 06:30:20;;;;;;;2.38;1.85;;;24.80;99.90;;;;;;5215329;28;20203;-61
2022/08/01 06:32:59;;;;;;;2.00;1.85;;;25.00;99.90;;;;;;5199330;28;20187;-62
2022/08/01 06:35:31;;;;;;;2.30;2.10;;;25.20;99.90;;;;;;5203296;28;20025;-61
2022/08/01 06:38:05;;;;;;;3.33;2.03;;;25.00;99.90;;;;;;5221233;28;20101;-63
2022/08/01 06:40:38;;;;;;;;;;;25.10;99.90;;;;;;5215168;28;20032;-62
2022/08/01 06:43:12;;;;;;;1.77;1.60;;;25.40;99.90;;;;;;5214454;28;19927;-61
2022/08/01 06:45:43;;;;;;;1.30;1.20;;;25.80;99.90;;;;;;5215577;28;20340;-60
2022/08/01 06:48:17;;;;;;;1.20;1.10;;;26.10;99.90;;;;;;5229050;28;20320;-61
2022/08/01 06:51:07;;;;;;;2.28;1.30;;;26.10;99.90;;;;;;5215284;28;20024;-61
2022/08/01 06:53:38;;;;;;;1.65;1.45;;;26.30;99.90;;;;;;5223014;28;20030;-63
2022/08/01 06:56:09;;;;;;;2.38;1.20;;;26.60;99.90;;;;;;5222073;28;20123;-62
2022/08/01 06:58:41;;;;;;;1.83;1.08;;;26.50;99.90;;;;;;5212987;28;20385;-62
2022/08/01 07:01:12;;;;;;;1.40;1.30;;;26.50;99.90;;;;;;5199171;28;20317;-62
2022/08/01 07:03:46;;;;;;;1.40;1.30;;;26.90;99.90;;;;;;5206233;28;20226;-65
2022/08/01 07:06:22;;;;;;;1.50;1.33;;;27.10;99.90;;;;;;5203091;28;20045;-62
2022/08/01 07:08:55;;;;;;;4.55;1.52;;;27.30;99.90;;;;;;5197235;28;20047;-62
2022/08/01 07:11:26;;;;;;;1.05;0.95;;;27.80;99.90;;;;;;5223017;28;20016;-61
2022/08/01 07:14:00;;;;;;;1.45;1.20;;;27.70;99.90;;;;;;5216735;28;20238;-62
2022/08/01 07:16:34;;;;;;;2.30;1.33;;;27.50;99.90;;;;;;5227797;28;20330;-61
2022/08/01 07:19:05;;;;;;;1.42;1.33;;;27.20;99.90;;;;;;5236245;28;20318;-62
2022/08/01 07:21:38;;;;;;;1.42;1.20;;;26.60;99.90;;;;;;5235402;28;20299;-61
2022/08/01 07:24:15;;;;;;;1.73;1.23;;;26.60;99.90;;;;;;5223666;28;20033;-61
2022/08/01 07:26:50;;;;;;;1.40;1.30;;;26.80;99.90;;;;;;5221536;28;20025;-61
2022/08/01 07:29:24;;;;;;;3.25;1.50;;;26.40;99.90;;;;;;5200124;28;20048;-61
2022/08/01 07:32:00;;;;;;;1.20;1.10;;;26.50;99.90;;;;;;5229311;28;20149;-62
2022/08/01 07:34:32;;;;;;;1.30;1.20;;;26.30;99.90;;;;;;5226650;28;20043;-61
2022/08/01 07:37:03;;;;;;;1.38;1.27;;;26.20;99.90;;;;;;5223594;28;20043;-62
2022/08/01 07:39:37;;;;;;;1.35;1.25;;;25.90;99.90;;;;;;5211616;28;20201;-61
2022/08/01 07:42:08;;;;;;;2.03;1.05;;;25.60;99.90;;;;;;5194187;28;20044;-60
2022/08/01 07:44:42;;;;;;;1.30;1.20;;;25.60;99.90;;;;;;5204470;28;20043;-61
2022/08/01 07:47:26;;;;;;;1.70;1.17;;;25.50;99.90;;;;;;5204569;28;20024;-61
2022/08/01 07:50:03;;;;;;;2.43;1.10;;;25.30;99.90;;;;;;5188688;28;20033;-61
2022/08/01 07:52:35;;;;;;;4.55;1.15;;;25.40;99.90;;;;;;5192799;28;20615;-61
2022/08/01 07:55:07;;;;;;;1.25;1.15;;;25.40;99.90;;;;;;5201627;28;20055;-61
2022/08/01 07:57:41;;;;;;;2.20;1.20;;;25.20;99.90;;;;;;5213926;28;20033;-61
2022/08/01 08:00:13;;;;;;;1.30;1.20;;;25.10;99.90;;;;;;5196919;28;20035;-62
2022/08/01 08:02:46;;;;;;;1.50;1.40;;;24.90;99.90;;;;;;5210422;28;20052;-61
2022/08/01 08:05:19;;;;;;;1.30;1.13;;;24.90;99.90;;;;;;5184206;28;20056;-61
2022/08/01 08:07:50;;;;;;;1.30;1.20;;;25.10;99.90;;;;;;5201841;28;20330;-61
2022/08/01 08:10:21;;;;;;;1.63;1.20;;;25.20;99.90;;;;;;5172458;28;20044;-61
2022/08/01 08:12:52;;;;;;;1.73;1.35;;;25.30;99.90;;;;;;5189592;28;20318;-61
2022/08/01 08:15:26;;;;;;;1.30;1.20;;;25.30;99.90;;;;;;5213679;28;20051;-61
2022/08/01 08:18:00;;;;;;;1.80;1.00;;;25.50;99.90;;;;;;5215993;28;20032;-61
2022/08/01 08:20:34;;;;;;;1.33;1.10;;;25.90;99.90;;;;;;5181534;28;20037;-62
2022/08/01 08:24:19;;;;;;;1.30;1.20;;;26.20;99.90;;;;;;5178367;28;20333;-61
2022/08/01 08:25:59;;;;;;;1.88;1.52;;;26.20;99.90;;;;;;5208321;28;20373;-61
2022/08/01 08:28:32;;;;;;;2.00;1.50;;;26.40;99.90;;;;;;5209532;28;20039;-63
2022/08/01 08:31:06;;;;;;;1.50;1.37;;;26.40;99.90;;;;;;5219227;28;20550;-61
2022/08/01 08:33:42;;;;;;;1.65;1.30;;;26.60;99.90;;;;;;5193792;28;20033;-62
2022/08/01 08:36:14;;;;;;;1.35;1.25;;;26.70;99.90;;;;;;5211961;28;20234;-61
2022/08/01 08:38:46;;;;;;;1.30;1.17;;;26.90;99.90;;;;;;5230350;28;20230;-61
2022/08/01 08:41:22;;;;;;;1.63;1.25;;;26.90;99.90;;;;;;5213471;28;20181;-61
2022/08/01 08:43:53;;;;;;;1.90;1.75;;;26.80;99.90;;;;;;5202986;28;20044;-61
2022/08/01 08:46:32;;;;;;;2.45;1.52;;;27.20;99.90;;;;;;5225134;28;20027;-61
2022/08/01 08:49:03;;;;;;;2.35;2.15;;;26.50;99.90;;;;;;5203037;28;20468;-61
2022/08/01 08:51:38;;;;;;;5.13;1.80;;;26.50;99.90;;;;;;5209849;28;20040;-61
2022/08/01 08:54:17;;;;;;;1.90;1.70;;;26.50;99.90;;;;;;5204439;28;20017;-61
2022/08/01 08:56:50;;;;;;;2.00;1.70;;;26.10;99.90;;;;;;5206165;28;20042;-61
2022/08/01 08:59:21;;;;;;;1.70;1.60;;;26.20;99.90;;;;;;5211404;28;20029;-61
2022/08/01 09:01:57;;;;;;;1.42;1.33;;;26.30;99.90;;;;;;5199731;28;20215;-61
2022/08/01 09:04:28;;;;;;;2.20;1.42;;;26.80;99.90;;;;;;5206046;28;20217;-61
2022/08/01 09:06:59;;;;;;;1.77;1.60;;;27.30;99.90;;;;;;5208724;28;20210;-62
2022/08/01 09:09:31;;;;;;;8.05;2.20;;;27.20;99.90;;;;;;5217227;28;20040;-62
2022/08/01 09:12:02;;;;;;;2.10;1.90;;;27.20;99.90;;;;;;5218196;28;20035;-62
2022/08/01 09:14:43;;;;;;;2.55;1.63;;;27.10;99.90;;;;;;5222178;28;20251;-61
2022/08/01 09:17:20;;;;;;;1.63;1.40;;;27.10;99.90;;;;;;5199911;28;20119;-60
2022/08/01 09:19:57;;;;;;;1.80;1.60;;;27.50;99.90;;;;;;5195449;28;20025;-63
2022/08/01 09:22:32;;;;;;;1.80;1.40;;;27.70;99.90;;;;;;5213797;28;20295;-61
2022/08/01 09:25:09;;;;;;;2.70;1.50;;;28.20;99.90;;;;;;5198847;28;20364;-64
2022/08/01 09:27:41;;;;;;;1.80;1.70;;;28.50;99.90;;;;;;5207531;28;20342;-61
2022/08/01 09:30:19;;;;;;;2.92;1.60;;;28.40;99.90;;;;;;5207919;28;20590;-62
2022/08/01 09:33:06;;;;;;;3.50;1.23;;;28.10;99.90;;;;;;5191481;28;20329;-62
2022/08/01 09:35:44;;;;;;;1.95;1.75;;;28.00;99.90;;;;;;5209843;28;20210;-60
2022/08/01 09:38:27;;;;;;;2.13;1.92;;;27.90;99.90;;;;;;5180141;28;20026;-61
2022/08/01 09:41:00;;;;;;;2.42;1.73;;;27.80;99.90;;;;;;5196200;28;20033;-62
2022/08/01 09:43:31;;;;;;;2.25;1.80;;;27.70;99.90;;;;;;5218458;28;20021;-61
2022/08/01 09:46:12;;;;;;;2.50;1.70;;;27.70;99.90;;;;;;5218072;28;20338;-61
2022/08/01 09:49:01;;;;;;;3.97;1.80;;;27.80;99.90;;;;;;5200709;28;20059;-62
2022/08/01 09:51:37;;;;;;;1.58;1.48;;;27.60;99.90;;;;;;5206658;28;20046;-60
2022/08/01 09:54:08;;;;;;;1.80;1.70;;;27.90;99.90;;;;;;5199335;28;20017;-61
2022/08/01 09:56:45;;;;;;;2.05;1.60;;;27.70;99.90;;;;;;5238529;28;20316;-63
2022/08/01 09:59:20;;;;;;;1.90;1.70;;;28.00;99.90;;;;;;5219888;28;20100;-62
2022/08/01 10:01:51;;;;;;;1.85;1.65;;;28.50;99.90;;;;;;5211602;28;20025;-61
2022/08/01 10:04:24;;;;;;;1.90;1.70;;;28.50;99.90;;;;;;5213381;28;20257;-61
2022/08/01 10:07:05;;;;;;;2.08;1.60;;;28.40;99.90;;;;;;5216138;28;20024;-61
2022/08/01 10:09:36;;;;;;;1.58;1.48;;;28.50;99.90;;;;;;5179324;28;20468;-61
2022/08/01 10:12:10;;;;;;;1.85;1.65;;;28.80;99.90;;;;;;5197327;28;20307;-61
2022/08/01 10:14:45;;;;;;;2.33;1.90;;;28.90;99.90;;;;;;5214829;28;20059;-62
2022/08/01 10:17:18;;;;;;;2.22;1.65;;;28.80;99.90;;;;;;5216336;28;20031;-62
2022/08/01 10:19:54;;;;;;;2.15;1.60;;;29.00;99.90;;;;;;5216668;28;20033;-62
2022/08/01 10:22:30;;;;;;;2.33;1.80;;;29.00;99.90;;;;;;5220086;28;20029;-62
2022/08/01 10:25:04;;;;;;;1.80;1.60;;;29.50;99.90;;;;;;5215964;28;20036;-62
2022/08/01 10:27:36;;;;;;;;;;;29.20;99.90;;;;;;5216581;28;20103;-61
2022/08/01 10:30:10;;;;;;;1.52;1.42;;;29.00;99.90;;;;;;5205114;28;20006;-61
2022/08/01 10:32:44;;;;;;;;;;;29.30;99.90;;;;;;5217398;28;20051;-61
2022/08/01 10:35:17;;;;;;;1.65;1.55;;;29.90;99.90;;;;;;5192515;28;19911;-61
2022/08/01 10:37:50;;;;;;;2.03;1.88;;;30.10;99.90;;;;;;5208931;28;20246;-61
2022/08/01 10:40:22;;;;;;;2.13;1.93;;;30.50;99.90;;;;;;5209310;28;20022;-62
2022/08/01 10:42:55;;;;;;;1.80;1.70;;;31.10;99.90;;;;;;5208200;28;20105;-61
2022/08/01 10:45:27;;;;;;;2.25;1.60;;;31.30;99.90;;;;;;5207161;28;20024;-62
2022/08/01 10:48:12;;;;;;;1.98;1.75;;;31.00;99.90;;;;;;5188247;28;20030;-61
2022/08/01 10:50:52;;;;;;;1.77;1.50;;;31.00;99.90;;;;;;5200379;28;20040;-62
2022/08/01 10:53:27;;;;;;;2.03;1.67;;;30.80;99.90;;;;;;5219961;28;20035;-62
2022/08/01 10:56:02;;;;;;;2.17;1.75;;;30.80;99.90;;;;;;5219730;28;20031;-62
2022/08/01 10:58:37;;;;;;;2.20;1.70;;;30.20;99.90;;;;;;5220559;28;20325;-62
2022/08/01 11:01:14;;;;;;;1.80;1.70;;;30.30;99.90;;;;;;5218746;28;20035;-62
2022/08/01 11:04:00;;;;;;;1.90;1.33;;;30.40;99.90;;;;;;5206062;28;20023;-63
2022/08/01 11:06:34;;;;;;;2.70;1.52;;;32.50;99.90;;;;;;5206507;28;20055;-62
2022/08/01 11:09:24;;;;;;;1.83;1.60;;;33.00;99.90;;;;;;5224924;28;20029;-62
2022/08/01 11:11:58;;;;;;;1.83;1.73;;;32.20;99.90;;;;;;5228620;28;20044;-62
2022/08/01 11:14:29;;;;;;;1.90;1.70;;;32.20;99.90;;;;;;5204510;28;20245;-62
2022/08/01 11:17:44;;;;;;;1.90;1.80;;;32.10;99.90;;;;;;5202095;28;20330;-62
2022/08/01 11:20:30;;;;;;;1.75;1.65;;;32.40;99.90;;;;;;5216715;28;20025;-62
2022/08/01 11:23:01;;;;;;;1.95;1.55;;;32.50;99.90;;;;;;5200107;28;20179;-64
2022/08/01 11:25:47;;;;;;;1.52;1.23;;;33.10;99.90;;;;;;5217213;28;20328;-62
2022/08/01 11:28:20;;;;;;;3.22;1.60;;;33.80;99.90;;;;;;5199414;28;20029;-62
2022/08/01 11:31:15;;;;;;;1.70;1.60;;;35.20;99.90;;;;;;5216667;28;20027;-62
2022/08/01 11:33:50;;;;;;;1.77;1.67;;;36.40;99.90;;;;;;5198959;28;20037;-63
2022/08/01 11:36:22;;;;;;;1.48;1.38;;;37.40;99.90;;;;;;5222935;28;20031;-62
2022/08/01 11:38:59;;;;;;;1.33;1.23;;;37.90;99.90;;;;;;5237461;28;20035;-62
2022/08/01 11:41:35;;;;;;;1.70;1.60;;;37.20;99.90;;;;;;5237487;28;20024;-62
2022/08/01 11:44:14;;;;;;;1.45;1.35;;;35.60;99.90;;;;;;5198520;28;20025;-62
2022/08/01 11:47:09;;;;;;;2.85;1.90;;;35.20;99.90;;;;;;5216903;28;20039;-63
2022/08/01 11:49:44;;;;;;;3.50;1.20;;;35.40;99.90;;;;;;5215457;28;20051;-63
2022/08/01 11:52:16;;;;;;;1.80;1.70;;;35.10;99.90;;;;;;5181460;28;20464;-64
2022/08/01 11:54:54;;;;;;;1.63;1.52;;;33.50;99.90;;;;;;5219029;28;20016;-62
2022/08/01 11:57:33;;;;;;;1.60;1.48;;;33.60;99.90;;;;;;5216339;28;20054;-63
2022/08/01 12:00:14;;;;;;;2.38;1.50;;;34.70;99.90;;;;;;5216036;28;20379;-64
2022/08/01 12:02:49;;;;;;;1.67;1.58;;;33.60;99.90;;;;;;5215551;28;20032;-62
2022/08/01 12:05:23;;;;;;;1.80;1.70;;;32.30;99.90;;;;;;5211068;28;20048;-62
2022/08/01 12:08:00;;;;;;;2.17;1.60;;;32.00;99.90;;;;;;5215052;28;20055;-62
2022/08/01 12:10:38;;;;;;;1.60;1.50;;;33.10;99.90;;;;;;5216419;28;20215;-62
2022/08/01 12:13:12;;;;;;;2.92;1.90;;;33.50;99.90;;;;;;5202829;28;20031;-61
2022/08/01 12:15:45;;;;;;;;;;;31.80;99.90;;;;;;5216188;28;20021;-62
2022/08/01 12:18:16;;;;;;;1.90;1.58;;;31.30;99.90;;;;;;5216113;28;20063;-63
2022/08/01 12:20:50;;;;;;;1.70;1.60;;;31.50;99.90;;;;;;5214822;28;20266;-62
2022/08/01 12:23:21;;;;;;;2.22;1.88;;;31.70;99.90;;;;;;5214920;28;20222;-62
2022/08/01 12:25:53;;;;;;;3.70;1.92;;;31.40;99.90;;;;;;5215669;28;20043;-62
2022/08/01 12:28:27;;;;;;;0.88;0.80;;;31.50;99.90;;;;;;5222806;28;20258;-63
2022/08/01 12:31:00;;;;;;;;;;;30.90;99.90;;;;;;5205314;28;20040;-61
2022/08/01 12:33:34;;;;;;;2.38;1.00;;;30.00;99.90;;;;;;5197288;28;19900;-61
2022/08/01 12:36:06;;;;;;;;;;;30.10;99.90;;;;;;5201529;28;20221;-60
2022/08/01 12:38:39;;;;;;;0.93;0.93;;;29.50;99.90;;;;;;5217452;28;20038;-61
2022/08/01 12:41:10;;;;;;;1.70;0.90;;;29.50;99.90;;;;;;5214576;28;20037;-61
2022/08/01 12:43:42;;;;;;;0.95;0.82;;;30.20;99.90;;;;;;5206520;28;20048;-61
2022/08/01 12:46:17;;;;;;;1.92;1.10;;;30.00;99.90;;;;;;5215413;28;20017;-61
2022/08/01 12:48:51;;;;;;;3.03;0.93;;;30.40;99.90;;;;;;5214371;28;20037;-61
2022/08/01 12:51:22;;;;;;;1.20;1.10;;;30.60;99.90;;;;;;5215193;28;20402;-61
2022/08/01 12:53:59;;;;;;;1.52;1.20;;;29.40;99.90;;;;;;5199042;28;20302;-62
2022/08/01 12:56:33;;;;;;;1.15;1.05;;;28.60;99.90;;;;;;5212410;28;20035;-61
2022/08/01 12:59:30;;;;;;;1.40;1.25;;;28.60;99.90;;;;;;5218470;28;20656;-62
2022/08/01 13:02:11;;;;;;;1.52;1.42;;;28.80;99.90;;;;;;5214330;28;20322;-61
2022/08/01 13:04:51;;;;;;;2.15;1.38;;;29.10;99.90;;;;;;5192434;28;20044;-61
2022/08/01 13:07:22;;;;;;;2.17;1.45;;;28.70;99.90;;;;;;5200878;28;20024;-60
2022/08/01 13:09:53;;;;;;;4.05;1.63;;;28.70;99.90;;;;;;5200893;28;20033;-61
2022/08/01 13:12:27;;;;;;;1.90;1.73;;;29.10;99.90;;;;;;5199528;28;20360;-61
2022/08/01 13:14:59;;;;;;;1.88;1.52;;;29.50;99.90;;;;;;5179275;28;20035;-61
2022/08/01 13:17:39;;;;;;;2.55;1.70;;;29.80;99.90;;;;;;5214787;28;20041;-63
2022/08/01 13:20:21;;;;;;;1.50;1.40;;;29.20;99.90;;;;;;5212672;28;20047;-61
2022/08/01 13:22:53;;;;;;;2.05;1.50;;;29.90;99.90;;;;;;5212969;28;20032;-61
2022/08/01 13:25:27;;;;;;;1.70;1.60;;;29.50;99.90;;;;;;5214556;28;20021;-60
2022/08/01 13:28:18;;;;;;;1.35;1.25;;;28.80;99.90;;;;;;5218977;28;20238;-63
2022/08/01 13:30:55;;;;;;;1.60;1.45;;;28.90;99.90;;;;;;5204113;28;20037;-61
2022/08/01 13:33:28;;;;;;;2.45;1.27;;;30.30;99.90;;;;;;5197381;28;20025;-63